Time;durP1;ratioP1;P1;durP2;ratioP2;P2;SDS_P1;SDS_P2;PMS_P1;PMS_P2;Temp;Humidity;BMP_temperature;BMP_pressure;BME280_temperature;BME280_humidity;BME280_pressure;Samples;Min_cycle;Max_cycle;Signal;HPM_P1;HPM_P2
2022/10/05 00:01:22;;;;;;;2.33;1.10;;;15.30;53.80;;;;;;4919641;29;20223;-36
2022/10/05 00:03:53;;;;;;;2.22;1.55;;;15.30;54.00;;;;;;4920112;29;20317;-38
2022/10/05 00:06:24;;;;;;;2.10;1.10;;;15.30;53.80;;;;;;4929773;29;20207;-40
2022/10/05 00:08:55;;;;;;;1.42;1.23;;;15.30;54.30;;;;;;4931116;29;20204;-37
2022/10/05 00:11:27;;;;;;;1.67;1.15;;;15.30;53.70;;;;;;4933381;29;20667;-40
2022/10/05 00:13:58;;;;;;;1.65;1.33;;;15.30;53.60;;;;;;4938736;29;20203;-36
2022/10/05 00:16:32;;;;;;;1.48;1.27;;;15.30;53.60;;;;;;4936501;29;20656;-36
2022/10/05 00:19:03;;;;;;;1.23;1.13;;;15.30;53.60;;;;;;4936547;29;20574;-35
2022/10/05 00:21:36;;;;;;;1.75;1.02;;;15.30;53.50;;;;;;4935603;29;20692;-36
2022/10/05 00:24:12;;;;;;;2.00;1.00;;;15.30;53.50;;;;;;4935888;29;20231;-36
2022/10/05 00:26:43;;;;;;;1.70;1.00;;;15.30;53.50;;;;;;4932169;29;20210;-36
2022/10/05 00:29:22;;;;;;;1.20;1.10;;;15.30;53.50;;;;;;4932147;29;20203;-35
2022/10/05 00:31:55;;;;;;;2.03;1.38;;;15.30;53.50;;;;;;4936000;29;20222;-39
2022/10/05 00:34:25;;;;;;;1.85;1.20;;;15.30;53.40;;;;;;4935579;29;20203;-35
2022/10/05 00:36:56;;;;;;;1.85;1.10;;;15.30;53.40;;;;;;4935539;29;20199;-38
2022/10/05 00:39:28;;;;;;;1.73;1.20;;;15.30;53.40;;;;;;4935495;29;20203;-40
2022/10/05 00:42:24;;;;;;;1.52;1.10;;;15.30;53.40;;;;;;4935648;29;20262;-39
2022/10/05 00:45:00;;;;;;;2.03;1.20;;;15.30;53.40;;;;;;4931087;29;20223;-46
2022/10/05 00:47:45;;;;;;;1.30;1.10;;;15.40;53.40;;;;;;4916987;29;20200;-35
2022/10/05 00:50:45;;;;;;;1.40;1.20;;;15.40;53.70;;;;;;4916420;29;20222;-35
2022/10/05 00:53:30;;;;;;;1.30;1.20;;;15.30;53.40;;;;;;4925827;29;20234;-37
2022/10/05 00:56:06;;;;;;;2.35;1.25;;;15.30;53.30;;;;;;4935068;29;20208;-39
2022/10/05 00:58:49;;;;;;;1.63;1.00;;;15.30;53.30;;;;;;4930140;29;20656;-35
2022/10/05 01:01:25;;;;;;;2.20;1.25;;;15.30;53.90;;;;;;4916540;29;20594;-35
2022/10/05 01:04:09;;;;;;;1.85;1.13;;;15.40;53.40;;;;;;4915783;29;20199;-35
2022/10/05 01:06:51;;;;;;;1.88;1.23;;;15.40;53.40;;;;;;4915309;29;20188;-35
2022/10/05 01:09:30;;;;;;;1.50;1.27;;;15.30;53.30;;;;;;4935243;29;20203;-35
2022/10/05 01:12:08;;;;;;;1.13;1.00;;;15.40;53.30;;;;;;4915863;29;20268;-38
2022/10/05 01:14:52;;;;;;;2.88;1.20;;;15.30;53.30;;;;;;4916541;29;20665;-36
2022/10/05 01:17:31;;;;;;;1.30;1.02;;;15.30;53.30;;;;;;4916305;29;20200;-36
2022/10/05 01:20:21;;;;;;;1.85;1.00;;;15.40;53.30;;;;;;4915763;29;20211;-39
2022/10/05 01:23:15;;;;;;;1.20;1.10;;;15.40;53.40;;;;;;4933591;29;20246;-36
2022/10/05 01:26:00;;;;;;;1.88;1.23;;;15.40;53.30;;;;;;4935130;29;20200;-37
2022/10/05 01:28:37;;;;;;;2.15;1.10;;;15.40;53.30;;;;;;4931318;29;20208;-36
2022/10/05 01:31:12;;;;;;;3.72;1.33;;;15.40;53.30;;;;;;4934744;29;20671;-35
2022/10/05 01:33:50;;;;;;;1.40;1.05;;;15.40;53.40;;;;;;4935326;29;20199;-44
2022/10/05 01:36:29;;;;;;;1.88;1.20;;;15.40;53.50;;;;;;4934947;29;20660;-36
2022/10/05 01:39:06;;;;;;;1.70;1.17;;;15.40;53.50;;;;;;4935171;29;20214;-36
2022/10/05 01:41:44;;;;;;;1.92;1.48;;;15.40;53.40;;;;;;4933733;29;20223;-36
2022/10/05 01:44:19;;;;;;;1.25;1.15;;;15.50;53.40;;;;;;4934433;29;20683;-35
2022/10/05 01:47:02;;;;;;;2.17;1.10;;;15.50;53.40;;;;;;4915474;29;20188;-35
2022/10/05 01:49:39;;;;;;;1.77;1.27;;;15.50;53.40;;;;;;4927340;29;20235;-36
2022/10/05 01:52:28;;;;;;;1.75;1.20;;;15.50;53.40;;;;;;4933736;29;20227;-35
2022/10/05 01:55:14;;;;;;;1.50;0.90;;;15.50;53.40;;;;;;4924665;29;20223;-36
2022/10/05 01:58:00;;;;;;;1.92;1.15;;;15.50;53.40;;;;;;4914635;29;20567;-36
2022/10/05 02:00:38;;;;;;;1.15;1.05;;;15.60;53.40;;;;;;4915881;29;20580;-36
2022/10/05 02:03:15;;;;;;;1.65;1.17;;;15.50;53.40;;;;;;4915160;29;20223;-36
2022/10/05 02:05:52;;;;;;;1.75;1.23;;;15.60;53.40;;;;;;4915873;29;20208;-36
2022/10/05 02:08:28;;;;;;;1.10;1.00;;;15.60;53.40;;;;;;4920300;29;20207;-36
2022/10/05 02:11:04;;;;;;;1.65;1.10;;;15.60;53.40;;;;;;4922805;29;20200;-36
2022/10/05 02:13:39;;;;;;;1.40;1.30;;;15.60;53.40;;;;;;4914988;29;20215;-38
2022/10/05 02:16:18;;;;;;;1.55;1.02;;;15.60;53.30;;;;;;4921577;29;20202;-36
2022/10/05 02:18:53;;;;;;;2.00;1.20;;;15.60;53.30;;;;;;4915326;29;20260;-35
2022/10/05 02:21:25;;;;;;;1.08;0.98;;;15.70;53.30;;;;;;4914819;29;20243;-36
2022/10/05 02:24:03;;;;;;;1.60;1.10;;;15.70;53.30;;;;;;4914853;29;20196;-35
2022/10/05 02:26:35;;;;;;;1.58;1.27;;;15.70;53.30;;;;;;4915098;29;20211;-36
2022/10/05 02:29:09;;;;;;;1.25;0.95;;;15.80;53.40;;;;;;4921760;29;20200;-37
2022/10/05 02:31:47;;;;;;;1.40;0.95;;;15.80;53.40;;;;;;4914676;29;20223;-36
2022/10/05 02:34:29;;;;;;;1.27;1.00;;;15.80;53.40;;;;;;4915272;29;20207;-35
2022/10/05 02:37:18;;;;;;;1.73;1.00;;;15.80;53.30;;;;;;4914728;29;20196;-36
2022/10/05 02:40:00;;;;;;;1.33;1.10;;;15.90;53.40;;;;;;4930238;29;20199;-36
2022/10/05 02:42:37;;;;;;;1.73;1.10;;;15.90;53.40;;;;;;4932030;29;20235;-36
2022/10/05 02:45:14;;;;;;;1.77;1.10;;;15.90;53.40;;;;;;4933404;29;20679;-36
2022/10/05 02:47:54;;;;;;;2.25;1.20;;;16.00;53.40;;;;;;4933047;29;20195;-36
2022/10/05 02:50:31;;;;;;;2.10;1.23;;;16.00;53.40;;;;;;4923028;29;20653;-38
2022/10/05 02:53:13;;;;;;;1.65;1.00;;;16.00;53.30;;;;;;4916543;29;20224;-36
2022/10/05 02:55:51;;;;;;;1.35;1.08;;;16.10;53.40;;;;;;4915840;29;20235;-35
2022/10/05 02:58:26;;;;;;;1.60;1.10;;;16.10;53.40;;;;;;4930402;29;20295;-36
2022/10/05 03:01:05;;;;;;;1.48;1.10;;;16.20;53.40;;;;;;4914465;29;20227;-36
2022/10/05 03:03:41;;;;;;;0.80;0.80;;;16.20;53.40;;;;;;4914883;29;20267;-36
2022/10/05 03:06:16;;;;;;;1.00;0.80;;;16.20;53.30;;;;;;4914176;29;20247;-36
2022/10/05 03:08:53;;;;;;;1.63;0.90;;;16.30;53.30;;;;;;4923331;29;20203;-36
2022/10/05 03:11:33;;;;;;;1.48;1.10;;;16.30;53.30;;;;;;4919076;29;20222;-36
2022/10/05 03:14:10;;;;;;;1.50;1.02;;;16.30;53.20;;;;;;4925492;29;20198;-38
2022/10/05 03:16:49;;;;;;;1.23;1.00;;;16.40;53.20;;;;;;4932183;29;20199;-36
2022/10/05 03:19:41;;;;;;;2.05;1.17;;;16.50;53.20;;;;;;4916485;29;20203;-36
2022/10/05 03:22:21;;;;;;;1.42;0.90;;;16.50;53.10;;;;;;4933029;29;20219;-36
2022/10/05 03:25:06;;;;;;;1.85;1.15;;;16.50;53.10;;;;;;4932546;29;20203;-36
2022/10/05 03:27:45;;;;;;;1.83;1.10;;;16.50;53.10;;;;;;4932957;29;20201;-36
2022/10/05 03:30:20;;;;;;;2.20;1.20;;;16.60;53.10;;;;;;4931408;29;20206;-38
2022/10/05 03:33:04;;;;;;;1.00;0.90;;;16.60;53.00;;;;;;4932243;29;20219;-37
2022/10/05 03:35:47;;;;;;;1.10;1.00;;;16.70;53.00;;;;;;4918793;29;20219;-36
2022/10/05 03:38:25;;;;;;;1.27;0.90;;;16.70;53.00;;;;;;4918655;29;20206;-36
2022/10/05 03:41:01;;;;;;;1.02;0.80;;;16.70;53.00;;;;;;4928448;29;20204;-37
2022/10/05 03:43:53;;;;;;;0.88;0.80;;;16.80;53.00;;;;;;4913569;29;20216;-37
2022/10/05 03:46:29;;;;;;;1.58;0.95;;;16.80;52.90;;;;;;4916859;29;20211;-36
2022/10/05 03:49:06;;;;;;;0.57;0.57;;;16.90;53.20;;;;;;4932734;29;20195;-36
2022/10/05 03:51:42;;;;;;;1.80;1.10;;;16.90;53.30;;;;;;4933157;29;20727;-37
2022/10/05 03:54:19;;;;;;;1.80;1.08;;;16.90;53.20;;;;;;4935425;29;20615;-36
2022/10/05 03:56:53;;;;;;;1.38;0.98;;;17.00;53.20;;;;;;4936632;29;20199;-36
2022/10/05 03:59:28;;;;;;;1.45;0.90;;;17.00;53.30;;;;;;4935921;29;20207;-37
2022/10/05 04:02:02;;;;;;;1.17;1.00;;;17.10;53.30;;;;;;4931107;29;20234;-45
2022/10/05 04:04:38;;;;;;;1.20;1.05;;;17.10;53.20;;;;;;4936566;29;20233;-36
2022/10/05 04:07:20;;;;;;;1.35;1.00;;;17.10;53.20;;;;;;4932254;29;20207;-36
2022/10/05 04:09:54;;;;;;;2.33;1.10;;;17.20;53.10;;;;;;4934607;29;20204;-37
2022/10/05 04:12:28;;;;;;;1.27;1.15;;;17.20;53.10;;;;;;4923857;29;20230;-36
2022/10/05 04:15:04;;;;;;;0.98;0.88;;;17.30;53.10;;;;;;4917995;29;20207;-38
2022/10/05 04:17:39;;;;;;;1.00;0.85;;;17.30;53.00;;;;;;4917632;29;20274;-36
2022/10/05 04:20:20;;;;;;;2.25;1.00;;;17.30;53.00;;;;;;4917938;29;20195;-37
2022/10/05 04:23:01;;;;;;;1.10;0.90;;;17.30;52.90;;;;;;4916617;29;20290;-36
2022/10/05 04:25:36;;;;;;;1.52;1.00;;;17.40;52.90;;;;;;4936179;29;20222;-37
2022/10/05 04:28:13;;;;;;;1.13;1.00;;;17.40;52.90;;;;;;4936583;29;20314;-36
2022/10/05 04:30:46;;;;;;;1.67;1.00;;;17.40;52.80;;;;;;4923377;29;20688;-36
2022/10/05 04:33:17;;;;;;;1.23;1.05;;;17.40;52.80;;;;;;4916943;29;20216;-36
2022/10/05 04:36:16;;;;;;;1.40;1.00;;;17.40;52.90;;;;;;4916886;29;20196;-36
2022/10/05 04:39:04;;;;;;;1.15;1.02;;;17.40;52.80;;;;;;4923093;29;20206;-36
2022/10/05 04:41:57;;;;;;;1.08;0.90;;;17.40;52.80;;;;;;4934972;29;20243;-36
2022/10/05 04:44:55;;;;;;;1.27;1.10;;;17.50;52.80;;;;;;4935749;29;20195;-36
2022/10/05 04:47:43;;;;;;;1.90;1.50;;;17.50;52.80;;;;;;4935259;29;20649;-36
2022/10/05 04:50:29;;;;;;;1.98;1.25;;;17.40;52.70;;;;;;4935611;29;20226;-36
2022/10/05 04:53:11;;;;;;;1.60;1.20;;;17.50;52.80;;;;;;4933553;29;20223;-36
2022/10/05 04:55:52;;;;;;;1.45;1.30;;;17.50;52.80;;;;;;4927829;29;20196;-37
2022/10/05 04:58:32;;;;;;;2.30;1.60;;;17.50;52.80;;;;;;4916567;29;20201;-37
2022/10/05 05:01:14;;;;;;;3.85;2.15;;;17.50;52.80;;;;;;4927729;29;20203;-36
2022/10/05 05:04:08;;;;;;;2.33;1.80;;;17.50;53.00;;;;;;4934729;29;20195;-36
2022/10/05 05:06:41;;;;;;;3.05;1.75;;;17.50;52.90;;;;;;4934816;29;20192;-36
2022/10/05 05:09:33;;;;;;;2.35;1.33;;;17.50;52.90;;;;;;4934516;29;20207;-41
2022/10/05 05:12:18;;;;;;;3.00;1.60;;;17.50;52.90;;;;;;4935313;29;20227;-37
2022/10/05 05:15:12;;;;;;;3.45;1.80;;;17.60;53.00;;;;;;4935313;29;20564;-36
2022/10/05 05:18:06;;;;;;;3.25;1.67;;;17.60;52.90;;;;;;4935243;29;20648;-40
2022/10/05 05:20:49;;;;;;;3.83;1.75;;;17.60;52.90;;;;;;4935213;29;20200;-36
2022/10/05 05:23:25;;;;;;;2.42;1.52;;;17.60;52.90;;;;;;4934604;29;20227;-36
2022/10/05 05:26:04;;;;;;;2.65;1.70;;;17.60;52.80;;;;;;4934520;29;20582;-35
2022/10/05 05:28:43;;;;;;;3.20;1.83;;;17.60;52.80;;;;;;4934070;29;20191;-35
2022/10/05 05:31:24;;;;;;;3.28;1.90;;;17.60;52.90;;;;;;4914972;29;20208;-36
2022/10/05 05:34:01;;;;;;;3.70;2.10;;;17.50;52.80;;;;;;4916387;29;20606;-36
2022/10/05 05:36:48;;;;;;;3.95;2.15;;;17.60;52.80;;;;;;4916128;29;20649;-40
2022/10/05 05:39:27;;;;;;;2.85;1.85;;;17.50;52.70;;;;;;4928900;29;20211;-37
2022/10/05 05:42:03;;;;;;;2.58;1.80;;;17.60;52.70;;;;;;4934916;29;20235;-38
2022/10/05 05:44:42;;;;;;;2.97;1.98;;;17.60;52.70;;;;;;4934696;29;20199;-41
2022/10/05 05:47:19;;;;;;;2.70;1.90;;;17.50;52.50;;;;;;4934501;29;20199;-41
2022/10/05 05:50:03;;;;;;;2.38;1.92;;;17.50;52.40;;;;;;4934363;29;20735;-34
2022/10/05 05:52:39;;;;;;;3.58;1.90;;;17.50;52.30;;;;;;4934205;29;20226;-38
2022/10/05 05:55:18;;;;;;;4.50;2.40;;;17.50;52.30;;;;;;4931467;29;20656;-35
2022/10/05 05:57:54;;;;;;;4.47;2.20;;;17.50;52.40;;;;;;4932193;29;20571;-37
2022/10/05 06:00:31;;;;;;;3.05;2.13;;;17.40;52.50;;;;;;4928035;29;20215;-36
2022/10/05 06:03:09;;;;;;;4.38;2.33;;;17.40;52.50;;;;;;4915351;29;20236;-43
2022/10/05 06:05:45;;;;;;;3.80;2.20;;;17.40;52.40;;;;;;4914857;29;20851;-40
2022/10/05 06:08:21;;;;;;;6.05;2.92;;;17.30;52.30;;;;;;4919111;29;20230;-41
2022/10/05 06:10:54;;;;;;;3.75;2.55;;;17.30;52.30;;;;;;4933758;29;20663;-46
2022/10/05 06:13:29;;;;;;;4.00;2.40;;;17.30;52.30;;;;;;4933750;29;20218;-38
2022/10/05 06:16:09;;;;;;;3.97;2.15;;;17.30;52.30;;;;;;4933223;29;20550;-40
2022/10/05 06:18:44;;;;;;;4.10;2.20;;;17.30;52.30;;;;;;4933660;29;20712;-36
2022/10/05 06:21:21;;;;;;;4.38;2.30;;;17.20;52.30;;;;;;4934127;29;20733;-40
2022/10/05 06:23:58;;;;;;;2.72;1.92;;;17.20;52.10;;;;;;4933071;29;20253;-37
2022/10/05 06:26:55;;;;;;;4.43;2.33;;;17.10;52.10;;;;;;4933285;29;20227;-43
2022/10/05 06:29:32;;;;;;;5.60;2.85;;;17.10;52.10;;;;;;4928173;29;20192;-35
2022/10/05 06:32:23;;;;;;;4.35;2.35;;;17.10;52.10;;;;;;4934745;29;20310;-37
2022/10/05 06:35:02;;;;;;;5.25;2.35;;;17.10;52.20;;;;;;4915361;29;20200;-44
2022/10/05 06:37:49;;;;;;;3.15;2.25;;;17.00;52.20;;;;;;4915122;29;20207;-50
2022/10/05 06:40:31;;;;;;;4.53;2.30;;;17.00;52.20;;;;;;4914742;29;20196;-40
2022/10/05 06:43:21;;;;;;;3.47;2.15;;;17.00;52.30;;;;;;4914659;29;20234;-44
2022/10/05 06:46:01;;;;;;;3.92;2.28;;;16.90;52.30;;;;;;4915093;29;20200;-41
2022/10/05 06:48:55;;;;;;;3.47;1.98;;;16.90;52.30;;;;;;4915089;29;20189;-42
2022/10/05 06:51:34;;;;;;;4.35;2.45;;;16.90;52.30;;;;;;4913577;29;20632;-40
2022/10/05 06:54:10;;;;;;;3.65;2.10;;;16.90;52.30;;;;;;4914878;29;20208;-46
2022/10/05 06:56:47;;;;;;;3.50;2.42;;;16.80;52.20;;;;;;4928748;29;20202;-37
2022/10/05 06:59:24;;;;;;;3.70;2.10;;;16.80;52.20;;;;;;4932625;29;20199;-38
2022/10/05 07:02:02;;;;;;;3.45;2.55;;;16.80;52.20;;;;;;4928540;29;20242;-35
2022/10/05 07:04:58;;;;;;;5.05;2.20;;;16.70;52.30;;;;;;4914857;29;20223;-35
2022/10/05 07:07:39;;;;;;;3.20;2.28;;;16.70;52.30;;;;;;4914393;29;20296;-37
2022/10/05 07:10:23;;;;;;;3.22;2.00;;;16.70;52.30;;;;;;4913131;29;20660;-39
2022/10/05 07:13:12;;;;;;;2.88;2.10;;;16.60;52.40;;;;;;4913261;29;20595;-40
2022/10/05 07:15:51;;;;;;;4.18;2.35;;;16.60;52.40;;;;;;4913396;29;20200;-37
2022/10/05 07:18:36;;;;;;;2.85;2.03;;;16.60;52.40;;;;;;4922117;29;20628;-40
2022/10/05 07:21:19;;;;;;;3.88;2.20;;;16.60;52.40;;;;;;4951443;28;20206;-36
2022/10/05 07:24:01;;;;;;;3.72;2.15;;;16.50;52.40;;;;;;4948058;28;20223;-38
2022/10/05 07:26:38;;;;;;;4.38;2.13;;;16.50;52.40;;;;;;4914883;29;20210;-39
2022/10/05 07:29:24;;;;;;;5.30;2.30;;;16.50;52.40;;;;;;4916627;29;20208;-36
2022/10/05 07:32:05;;;;;;;3.15;1.92;;;16.50;52.40;;;;;;4917130;29;20276;-40
2022/10/05 07:34:47;;;;;;;3.05;2.00;;;16.50;52.40;;;;;;4943359;29;20198;-38
2022/10/05 07:40:19;;;;;;;2.75;2.08;;;16.40;52.50;;;;;;4917088;29;20668;-37
2022/10/05 07:43:09;;;;;;;4.35;2.20;;;16.40;52.50;;;;;;4916750;29;20259;-35
2022/10/05 07:45:46;;;;;;;3.55;2.22;;;16.30;52.50;;;;;;4920192;29;20584;-37
2022/10/05 07:48:22;;;;;;;2.80;1.80;;;16.30;52.50;;;;;;4937829;29;20203;-37
2022/10/05 07:51:13;;;;;;;3.30;2.10;;;16.30;52.50;;;;;;4955421;28;20202;-35
2022/10/05 07:53:52;;;;;;;3.38;2.28;;;16.20;52.40;;;;;;4928552;28;20660;-35
2022/10/05 07:56:27;;;;;;;3.00;2.17;;;16.20;52.40;;;;;;4916705;29;20208;-36
2022/10/05 07:59:03;;;;;;;2.97;1.80;;;16.20;52.50;;;;;;4916408;29;20223;-35
2022/10/05 08:01:37;;;;;;;2.80;2.03;;;16.20;52.50;;;;;;4931854;29;20221;-37
2022/10/05 08:04:13;;;;;;;4.63;2.22;;;16.20;52.50;;;;;;4943075;29;20572;-35
2022/10/05 08:06:50;;;;;;;3.50;2.00;;;16.10;52.50;;;;;;4954761;28;20187;-35
2022/10/05 08:09:32;;;;;;;2.80;2.10;;;16.10;52.50;;;;;;4941267;28;20793;-35
2022/10/05 08:12:11;;;;;;;6.30;2.40;;;16.10;52.50;;;;;;4935230;29;20227;-40
2022/10/05 08:14:49;;;;;;;2.00;1.80;;;16.00;52.50;;;;;;4935136;29;20789;-37
2022/10/05 08:17:27;;;;;;;2.78;2.22;;;16.00;52.50;;;;;;4935107;29;20195;-38
2022/10/05 08:20:07;;;;;;;3.17;1.92;;;16.00;52.50;;;;;;4948518;29;20213;-39
2022/10/05 08:22:47;;;;;;;3.35;2.08;;;16.00;52.50;;;;;;4954354;28;20222;-37
2022/10/05 08:25:26;;;;;;;2.90;2.10;;;15.90;52.50;;;;;;4954763;28;20217;-38
2022/10/05 08:28:04;;;;;;;3.33;2.25;;;15.90;52.50;;;;;;4954670;28;20199;-35
2022/10/05 08:30:49;;;;;;;3.42;2.33;;;15.90;52.50;;;;;;4920231;28;20212;-35
2022/10/05 08:33:22;;;;;;;2.30;1.80;;;15.90;52.50;;;;;;4915840;29;20224;-35
2022/10/05 08:36:02;;;;;;;3.13;2.22;;;15.90;52.50;;;;;;4954464;28;20207;-39
2022/10/05 08:38:35;;;;;;;2.78;2.20;;;15.90;52.50;;;;;;4946906;28;20204;-35
2022/10/05 08:41:41;;;;;;;2.83;1.85;;;15.80;52.50;;;;;;4935333;29;20666;-35
2022/10/05 08:44:58;;;;;;;3.53;2.00;;;15.80;52.50;;;;;;4934949;29;20234;-48
2022/10/05 08:47:54;;;;;;;4.65;2.42;;;15.80;52.60;;;;;;4935139;29;20216;-35
2022/10/05 08:50:39;;;;;;;3.95;2.40;;;15.80;53.00;;;;;;4950485;29;20202;-37
2022/10/05 08:53:37;;;;;;;4.18;2.47;;;15.80;53.20;;;;;;4953735;28;20222;-37
2022/10/05 08:56:31;;;;;;;3.15;2.08;;;15.80;53.20;;;;;;4931422;28;20204;-34
2022/10/05 08:59:44;;;;;;;3.88;2.28;;;15.80;53.10;;;;;;4918719;29;20198;-47
2022/10/05 09:02:25;;;;;;;3.50;2.60;;;15.70;53.00;;;;;;4931842;29;20218;-38
2022/10/05 09:05:31;;;;;;;3.55;2.40;;;15.70;53.00;;;;;;4921168;29;20208;-39
2022/10/05 09:08:37;;;;;;;3.17;2.03;;;15.70;53.00;;;;;;4919491;29;20587;-44
2022/10/05 09:11:15;;;;;;;2.97;2.35;;;15.70;53.00;;;;;;4935017;29;20203;-35
2022/10/05 09:14:18;;;;;;;3.83;2.15;;;15.60;52.90;;;;;;4924642;29;20290;-35
2022/10/05 09:17:16;;;;;;;2.90;2.05;;;15.60;53.00;;;;;;4915791;29;20211;-38
2022/10/05 09:20:19;;;;;;;3.13;2.20;;;15.60;53.00;;;;;;4919641;29;20279;-35
2022/10/05 09:23:13;;;;;;;3.92;2.30;;;15.50;52.90;;;;;;4915954;29;20223;-39
2022/10/05 09:25:58;;;;;;;2.90;2.20;;;15.60;53.00;;;;;;4917667;29;20204;-35
2022/10/05 09:28:35;;;;;;;3.88;2.22;;;15.50;52.90;;;;;;4934418;29;20199;-35
2022/10/05 09:31:44;;;;;;;3.78;2.30;;;15.50;53.00;;;;;;4934725;29;20196;-35
2022/10/05 09:35:08;;;;;;;3.40;2.25;;;15.40;52.90;;;;;;4929946;29;20290;-35
2022/10/05 09:38:09;;;;;;;3.33;2.47;;;15.40;52.80;;;;;;4894759;29;20208;-35
2022/10/05 09:41:11;;;;;;;3.55;2.47;;;15.50;52.80;;;;;;4934828;29;20195;-35
2022/10/05 09:44:09;;;;;;;2.88;2.05;;;15.40;52.80;;;;;;4934005;29;20238;-35
2022/10/05 09:47:14;;;;;;;2.58;2.15;;;15.40;52.80;;;;;;4933840;29;20230;-38
2022/10/05 09:50:17;;;;;;;3.13;2.20;;;15.40;52.80;;;;;;4928284;29;20203;-37
2022/10/05 09:53:05;;;;;;;3.42;2.20;;;15.40;52.80;;;;;;4897687;29;20220;-42
2022/10/05 09:56:10;;;;;;;2.80;2.00;;;15.40;52.80;;;;;;4915361;29;20196;-36
2022/10/05 09:59:33;;;;;;;3.72;2.28;;;15.30;52.70;;;;;;4915639;29;20204;-35
2022/10/05 10:02:21;;;;;;;3.72;2.20;;;15.30;52.70;;;;;;4908275;29;20231;-35
2022/10/05 10:05:19;;;;;;;3.22;2.10;;;15.30;52.70;;;;;;4918873;29;20237;-36
2022/10/05 10:08:21;;;;;;;3.30;2.00;;;15.30;52.70;;;;;;4933982;29;20210;-37
2022/10/05 10:11:12;;;;;;;3.35;1.63;;;15.30;52.70;;;;;;4925809;29;20199;-36
2022/10/05 10:14:11;;;;;;;3.38;1.75;;;15.20;52.60;;;;;;4933858;29;20199;-36
2022/10/05 10:16:59;;;;;;;3.72;1.90;;;15.20;52.60;;;;;;4933037;29;20199;-35
2022/10/05 10:20:06;;;;;;;2.50;1.95;;;15.20;52.60;;;;;;4932792;29;20195;-34
2022/10/05 10:23:18;;;;;;;2.78;1.77;;;15.20;52.60;;;;;;4919315;29;20695;-41
2022/10/05 10:26:20;;;;;;;3.42;2.00;;;15.10;52.50;;;;;;4937475;28;20204;-39
2022/10/05 10:29:30;;;;;;;3.17;1.95;;;15.10;52.50;;;;;;4932870;29;20214;-36
2022/10/05 10:32:25;;;;;;;2.80;1.90;;;15.10;52.50;;;;;;4932590;29;20219;-40
2022/10/05 10:35:13;;;;;;;2.25;1.60;;;15.10;52.50;;;;;;4932682;29;20199;-35
2022/10/05 10:38:24;;;;;;;2.95;1.67;;;15.10;52.50;;;;;;4933534;29;20226;-36
2022/10/05 10:41:15;;;;;;;3.58;1.90;;;15.00;52.40;;;;;;4898697;29;20742;-35
2022/10/05 10:44:25;;;;;;;2.00;1.63;;;15.00;52.30;;;;;;4932706;29;20235;-39
2022/10/05 10:47:20;;;;;;;3.00;1.80;;;15.00;52.30;;;;;;4914297;29;20199;-40
2022/10/05 10:50:11;;;;;;;2.45;1.75;;;15.00;52.30;;;;;;4932563;29;20203;-40
2022/10/05 10:52:53;;;;;;;2.75;1.48;;;15.00;52.20;;;;;;4932517;29;20219;-35
2022/10/05 10:55:39;;;;;;;2.85;1.70;;;14.90;52.20;;;;;;4951738;28;20731;-41
2022/10/05 10:58:46;;;;;;;4.30;1.80;;;14.90;52.20;;;;;;4943366;28;21157;-36
2022/10/05 11:01:31;;;;;;;2.65;1.50;;;14.90;52.10;;;;;;4918143;29;20224;-35
2022/10/05 11:04:39;;;;;;;1.95;1.48;;;14.90;52.10;;;;;;4913507;29;20607;-41
2022/10/05 11:07:41;;;;;;;2.30;1.73;;;14.90;52.10;;;;;;4907048;29;20200;-35
2022/10/05 11:10:30;;;;;;;2.38;1.70;;;14.90;52.00;;;;;;4930750;29;20207;-36
2022/10/05 11:13:29;;;;;;;3.53;1.67;;;14.90;52.00;;;;;;4913151;29;20720;-36
2022/10/05 11:16:31;;;;;;;2.83;1.67;;;14.80;52.00;;;;;;4912107;29;20704;-35
2022/10/05 11:19:26;;;;;;;2.72;1.63;;;14.80;52.00;;;;;;4913367;29;20203;-38
2022/10/05 11:22:14;;;;;;;2.08;1.63;;;14.80;52.00;;;;;;4913106;29;20307;-38
2022/10/05 11:25:12;;;;;;;2.00;1.30;;;14.80;51.90;;;;;;4942897;29;20233;-43
2022/10/05 11:28:09;;;;;;;1.83;1.20;;;14.70;51.80;;;;;;4951774;28;20199;-37
2022/10/05 11:31:12;;;;;;;1.63;1.40;;;14.70;51.80;;;;;;4951557;28;20705;-36
2022/10/05 11:34:14;;;;;;;1.95;1.48;;;14.70;51.80;;;;;;4913186;29;20204;-37
2022/10/05 11:37:21;;;;;;;2.72;1.90;;;14.70;51.80;;;;;;4912940;29;20693;-37
2022/10/05 11:40:35;;;;;;;2.83;1.63;;;14.70;51.70;;;;;;4944575;29;20543;-37
2022/10/05 11:43:33;;;;;;;2.28;1.33;;;14.70;51.70;;;;;;4934701;28;20223;-37
2022/10/05 11:46:11;;;;;;;1.70;1.30;;;14.70;51.70;;;;;;4944645;28;20198;-39
2022/10/05 11:49:00;;;;;;;1.45;1.20;;;14.70;51.60;;;;;;4951086;28;20203;-37
2022/10/05 11:51:43;;;;;;;2.88;1.30;;;14.70;51.60;;;;;;4950888;28;20253;-37
2022/10/05 11:54:40;;;;;;;1.50;1.27;;;14.60;51.60;;;;;;4950526;28;20199;-39
2022/10/05 11:57:17;;;;;;;2.55;1.38;;;14.60;51.60;;;;;;4914767;28;20204;-37
2022/10/05 11:59:58;;;;;;;1.88;1.30;;;14.60;51.50;;;;;;4914343;29;20212;-37
2022/10/05 12:03:09;;;;;;;2.83;1.35;;;14.60;51.50;;;;;;4932191;29;20626;-39
2022/10/05 12:05:50;;;;;;;2.58;1.58;;;14.50;51.50;;;;;;4931739;29;20624;-38
2022/10/05 12:08:35;;;;;;;2.13;1.30;;;14.60;51.50;;;;;;4932759;29;20320;-37
2022/10/05 12:11:26;;;;;;;1.77;1.17;;;14.50;51.40;;;;;;4950699;28;20198;-37
2022/10/05 12:14:02;;;;;;;1.65;1.30;;;14.50;51.40;;;;;;4952966;28;20285;-38
2022/10/05 12:16:40;;;;;;;2.03;1.38;;;14.50;51.40;;;;;;4955046;28;20207;-38
2022/10/05 12:19:18;;;;;;;1.23;1.13;;;14.50;51.30;;;;;;4954699;28;20221;-41
2022/10/05 12:21:53;;;;;;;2.38;1.30;;;14.50;51.30;;;;;;4932500;28;20937;-44
2022/10/05 12:24:29;;;;;;;2.00;1.42;;;14.50;51.20;;;;;;4934797;29;20615;-42
2022/10/05 12:27:04;;;;;;;2.28;1.45;;;14.40;51.20;;;;;;4954696;28;20194;-49
2022/10/05 12:29:43;;;;;;;1.52;1.33;;;14.40;51.20;;;;;;4926771;28;20695;-40
2022/10/05 12:32:18;;;;;;;1.63;1.17;;;14.40;51.20;;;;;;4916071;29;20224;-41
2022/10/05 12:34:58;;;;;;;2.03;1.25;;;14.40;51.20;;;;;;4916137;29;20210;-39
2022/10/05 12:37:43;;;;;;;1.50;1.23;;;14.40;51.20;;;;;;4916748;29;20203;-40
2022/10/05 12:40:28;;;;;;;2.58;1.13;;;14.40;51.10;;;;;;4945874;29;20576;-43
2022/10/05 12:43:11;;;;;;;2.28;1.40;;;14.40;51.10;;;;;;4954094;28;20214;-41
2022/10/05 12:45:56;;;;;;;2.08;1.30;;;14.30;51.10;;;;;;4953693;28;20236;-42
2022/10/05 12:48:54;;;;;;;1.67;1.10;;;14.30;51.10;;;;;;4953826;28;20659;-40
2022/10/05 12:51:33;;;;;;;1.75;1.10;;;14.30;51.10;;;;;;4936345;28;20286;-39
2022/10/05 12:54:12;;;;;;;1.23;1.02;;;14.30;51.00;;;;;;4953616;28;20206;-38
2022/10/05 12:56:50;;;;;;;2.05;1.17;;;14.30;51.00;;;;;;4953878;28;20202;-38
2022/10/05 12:59:30;;;;;;;2.22;1.33;;;14.30;51.00;;;;;;4953277;28;20221;-37
2022/10/05 13:02:08;;;;;;;1.67;1.30;;;14.20;51.00;;;;;;4934740;28;20219;-42
2022/10/05 13:04:49;;;;;;;1.17;0.98;;;14.20;51.00;;;;;;4920901;29;20228;-38
2022/10/05 13:07:42;;;;;;;1.25;1.00;;;14.20;51.00;;;;;;4915562;29;20580;-37
2022/10/05 13:10:27;;;;;;;2.67;1.33;;;14.20;50.90;;;;;;4942354;29;20199;-36
2022/10/05 13:13:07;;;;;;;1.77;1.15;;;14.20;50.90;;;;;;4953442;28;20226;-37
2022/10/05 13:15:45;;;;;;;1.05;0.90;;;14.20;50.90;;;;;;4950445;28;20656;-38
2022/10/05 13:18:23;;;;;;;1.60;1.27;;;14.10;50.80;;;;;;4934075;29;20825;-36
2022/10/05 13:21:03;;;;;;;1.50;1.10;;;14.10;50.80;;;;;;4915678;29;20206;-37
2022/10/05 13:23:43;;;;;;;2.40;1.15;;;14.20;50.90;;;;;;4914973;29;20231;-36
2022/10/05 13:26:19;;;;;;;1.65;1.10;;;14.10;50.80;;;;;;4914749;29;20199;-39
2022/10/05 13:28:58;;;;;;;1.73;1.13;;;14.10;50.80;;;;;;4914758;29;20602;-43
2022/10/05 13:31:34;;;;;;;1.10;0.90;;;14.10;51.40;;;;;;4915075;29;20200;-39
2022/10/05 13:34:16;;;;;;;1.65;1.23;;;14.00;50.70;;;;;;4915221;29;20211;-35
2022/10/05 13:36:59;;;;;;;1.17;1.08;;;14.00;50.70;;;;;;4915677;29;20196;-37
2022/10/05 13:39:56;;;;;;;1.40;1.00;;;14.00;50.70;;;;;;4934935;29;20190;-35
2022/10/05 13:42:35;;;;;;;1.27;0.98;;;14.00;50.70;;;;;;4941554;28;20219;-35
2022/10/05 13:45:17;;;;;;;1.13;1.00;;;14.00;50.70;;;;;;4914808;29;20246;-36
2022/10/05 13:48:01;;;;;;;2.45;1.20;;;14.00;50.70;;;;;;4914802;29;20204;-36
2022/10/05 13:50:34;;;;;;;1.48;1.10;;;13.90;50.60;;;;;;4914692;29;20672;-35
2022/10/05 13:53:17;;;;;;;2.13;1.20;;;13.90;50.60;;;;;;4914666;29;20224;-35
2022/10/05 13:55:52;;;;;;;1.15;0.85;;;13.90;50.60;;;;;;4946047;29;20568;-35
2022/10/05 13:58:31;;;;;;;2.25;1.08;;;13.90;50.60;;;;;;4952602;28;20198;-35
2022/10/05 14:01:08;;;;;;;1.20;0.93;;;13.80;50.40;;;;;;4931337;28;20255;-35
2022/10/05 14:03:40;;;;;;;1.42;1.10;;;13.80;50.50;;;;;;4914518;29;20216;-37
2022/10/05 14:06:15;;;;;;;2.33;0.93;;;13.80;50.50;;;;;;4914215;29;20235;-35
2022/10/05 14:08:54;;;;;;;1.48;0.90;;;13.80;50.50;;;;;;4922537;29;20294;-35
2022/10/05 14:11:31;;;;;;;1.60;0.80;;;13.80;50.50;;;;;;4914472;29;20200;-35
2022/10/05 14:14:18;;;;;;;2.92;1.17;;;13.80;50.50;;;;;;4914276;29;20236;-37
2022/10/05 14:16:54;;;;;;;1.02;0.90;;;13.80;50.50;;;;;;4915683;29;20195;-35